Time;durP1;ratioP1;P1;durP2;ratioP2;P2;SDS_P1;SDS_P2;PMS_P1;PMS_P2;Temp;Humidity;BMP_temperature;BMP_pressure;BME280_temperature;BME280_humidity;BME280_pressure;Samples;Min_cycle;Max_cycle;Signal;HPM_P1;HPM_P2
2023/12/14 00:01:45;;;;;;;2.83;2.07;;;6.40;99.90;;;;;;5069917;28;20251;-66
2023/12/14 00:04:11;;;;;;;3.27;2.00;;;6.30;99.90;;;;;;5074934;28;20180;-67
2023/12/14 00:06:37;;;;;;;2.83;2.13;;;6.30;99.90;;;;;;5060838;28;20436;-66
2023/12/14 00:09:02;;;;;;;5.90;2.63;;;6.30;99.90;;;;;;5071141;22;20222;-67
2023/12/14 00:11:28;;;;;;;3.03;1.93;;;6.40;99.90;;;;;;5034802;28;20250;-67
2023/12/14 00:13:53;;;;;;;3.30;2.47;;;6.40;99.90;;;;;;5034479;28;20181;-67
2023/12/14 00:16:19;;;;;;;1.90;1.77;;;6.40;99.90;;;;;;5033469;28;20178;-67
2023/12/14 00:18:44;;;;;;;2.27;2.07;;;6.40;99.90;;;;;;5044530;28;20769;-67
2023/12/14 00:21:10;;;;;;;2.30;2.07;;;6.40;99.90;;;;;;5041847;28;20170;-66
2023/12/14 00:23:35;;;;;;;2.97;2.77;;;6.40;99.90;;;;;;5041055;28;20182;-67
2023/12/14 00:26:01;;;;;;;4.43;2.20;;;6.40;99.90;;;;;;5026403;28;20650;-67
2023/12/14 00:28:26;;;;;;;3.10;2.40;;;6.40;99.90;;;;;;5028244;28;20182;-67
2023/12/14 00:30:51;;;;;;;2.77;2.57;;;6.40;99.90;;;;;;5034872;28;20183;-67
2023/12/14 00:33:17;;;;;;;3.30;2.90;;;6.50;99.90;;;;;;5017786;28;20183;-67
2023/12/14 00:35:42;;;;;;;4.77;2.30;;;6.50;99.90;;;;;;5039848;28;20184;-67
2023/12/14 00:38:08;;;;;;;2.60;2.40;;;6.50;99.90;;;;;;5037403;28;20245;-67
2023/12/14 00:40:33;;;;;;;3.80;3.10;;;6.60;99.90;;;;;;5042469;28;20194;-67
2023/12/14 00:42:59;;;;;;;3.53;2.70;;;6.60;99.90;;;;;;5034241;28;20639;-68
2023/12/14 00:45:24;;;;;;;3.60;2.87;;;6.60;99.90;;;;;;5034163;28;20261;-67
2023/12/14 00:47:50;;;;;;;3.03;2.73;;;6.50;99.90;;;;;;5032420;28;20255;-67
2023/12/14 00:50:15;;;;;;;3.23;2.93;;;6.50;99.90;;;;;;5041583;28;20182;-67
2023/12/14 00:52:41;;;;;;;3.00;2.70;;;6.40;99.90;;;;;;5032353;28;20182;-67
2023/12/14 00:55:06;;;;;;;6.03;2.10;;;6.50;99.90;;;;;;5040934;28;20185;-68
2023/12/14 00:57:32;;;;;;;3.27;2.97;;;6.40;99.90;;;;;;5039038;28;20658;-67
2023/12/14 00:59:57;;;;;;;5.80;2.53;;;6.40;99.90;;;;;;5031534;28;20216;-67
2023/12/14 01:02:23;;;;;;;2.93;2.63;;;6.40;99.90;;;;;;5040329;28;20181;-67
2023/12/14 01:04:48;;;;;;;4.00;2.40;;;6.40;99.90;;;;;;5045022;28;20178;-68
2023/12/14 01:07:14;;;;;;;2.80;2.40;;;6.30;99.90;;;;;;5035310;28;20293;-67
2023/12/14 01:09:39;;;;;;;2.60;2.40;;;6.30;99.90;;;;;;5031300;28;20214;-68
2023/12/14 01:12:05;;;;;;;7.40;2.20;;;6.30;99.90;;;;;;5048505;28;20178;-68
2023/12/14 01:14:31;;;;;;;2.70;2.20;;;6.20;99.90;;;;;;5033213;28;20543;-67
2023/12/14 01:16:56;;;;;;;2.73;2.53;;;6.20;99.90;;;;;;5032875;28;20524;-67
2023/12/14 01:19:22;;;;;;;2.50;2.23;;;6.20;99.90;;;;;;5035854;28;20213;-67
2023/12/14 01:21:47;;;;;;;3.10;2.63;;;6.20;99.90;;;;;;5038799;28;20181;-67
2023/12/14 01:24:14;;;;;;;3.17;2.50;;;6.30;99.90;;;;;;5032328;28;20181;-67
2023/12/14 01:26:39;;;;;;;3.80;2.40;;;6.30;99.90;;;;;;5034865;28;20257;-66
2023/12/14 01:29:05;;;;;;;2.43;2.23;;;6.20;99.90;;;;;;5042873;28;20555;-67
2023/12/14 01:31:30;;;;;;;2.33;2.20;;;6.20;99.90;;;;;;5033823;28;20573;-67
2023/12/14 01:33:56;;;;;;;2.80;2.10;;;6.20;99.90;;;;;;5032238;28;20193;-66
2023/12/14 01:36:23;;;;;;;2.30;2.10;;;6.20;99.90;;;;;;5034057;28;20256;-67
2023/12/14 01:38:49;;;;;;;2.20;2.00;;;6.20;99.90;;;;;;5030694;28;20244;-67
2023/12/14 01:41:14;;;;;;;8.43;2.00;;;6.30;99.90;;;;;;5041328;28;20428;-66
2023/12/14 01:43:40;;;;;;;2.10;1.90;;;6.30;99.90;;;;;;5041286;28;20463;-67
2023/12/14 01:46:05;;;;;;;2.13;1.93;;;6.30;99.90;;;;;;5032352;28;20182;-67
2023/12/14 01:48:31;;;;;;;2.13;2.00;;;6.30;99.90;;;;;;5030296;28;20182;-67
2023/12/14 01:50:56;;;;;;;4.67;1.90;;;6.30;99.90;;;;;;5040611;28;20592;-67
2023/12/14 01:53:22;;;;;;;2.00;1.80;;;6.30;99.90;;;;;;5024245;28;20185;-67
2023/12/14 01:55:47;;;;;;;5.23;2.00;;;6.30;99.90;;;;;;5039096;28;20294;-67
2023/12/14 01:58:13;;;;;;;2.00;1.90;;;6.30;99.90;;;;;;5040963;28;20300;-67
2023/12/14 02:00:45;;;;;;;1.93;1.83;;;6.30;99.90;;;;;;5031524;28;20202;-67
2023/12/14 02:03:11;;;;;;;2.60;1.67;;;6.40;99.90;;;;;;5039804;28;20174;-67
2023/12/14 02:05:37;;;;;;;2.50;1.93;;;6.40;99.90;;;;;;5031395;28;20989;-67
2023/12/14 02:08:02;;;;;;;2.33;2.13;;;6.40;99.90;;;;;;5031325;28;20746;-67
2023/12/14 02:10:28;;;;;;;1.43;1.33;;;6.50;99.90;;;;;;5039640;28;20301;-66
2023/12/14 02:12:53;;;;;;;3.13;2.10;;;6.40;99.90;;;;;;5032068;28;20178;-67
2023/12/14 02:15:20;;;;;;;2.37;2.20;;;6.40;99.90;;;;;;5030031;28;20185;-67
2023/12/14 02:17:45;;;;;;;1.73;1.63;;;6.50;99.90;;;;;;5032972;28;20181;-67
2023/12/14 02:20:11;;;;;;;3.10;1.97;;;6.40;99.90;;;;;;5039639;28;20469;-66
2023/12/14 02:22:52;;;;;;;3.60;2.50;;;6.30;99.90;;;;;;5024007;28;20209;-67
2023/12/14 02:25:18;;;;;;;4.00;2.73;;;6.30;99.90;;;;;;5038386;28;20182;-67
2023/12/14 02:27:44;;;;;;;2.40;2.20;;;6.30;99.90;;;;;;5032811;28;20429;-67
2023/12/14 02:30:10;;;;;;;2.50;2.30;;;6.30;99.90;;;;;;5039001;28;20455;-67
2023/12/14 02:32:36;;;;;;;3.83;1.87;;;6.30;99.90;;;;;;5031854;28;20181;-67
2023/12/14 02:35:02;;;;;;;2.80;1.60;;;6.30;99.90;;;;;;5039626;28;20442;-67
2023/12/14 02:37:28;;;;;;;2.83;2.40;;;6.30;99.90;;;;;;5032406;28;20436;-67
2023/12/14 02:39:53;;;;;;;1.83;1.70;;;6.30;99.90;;;;;;5033816;28;20264;-66
2023/12/14 02:42:19;;;;;;;1.50;1.40;;;6.30;99.90;;;;;;5030198;28;20659;-68
2023/12/14 02:44:46;;;;;;;1.50;1.40;;;6.40;99.90;;;;;;5039662;28;20198;-67
2023/12/14 02:47:11;;;;;;;1.77;1.67;;;6.40;99.90;;;;;;5039605;28;20630;-67
2023/12/14 02:49:37;;;;;;;4.63;2.40;;;6.40;99.90;;;;;;5032552;28;20479;-67
2023/12/14 02:52:03;;;;;;;2.00;1.90;;;6.40;99.90;;;;;;5019865;28;20185;-67
2023/12/14 02:54:28;;;;;;;2.17;1.97;;;6.50;99.90;;;;;;5032741;28;20209;-67
2023/12/14 02:56:54;;;;;;;2.10;1.90;;;6.50;99.90;;;;;;5041392;28;20264;-68
2023/12/14 02:59:19;;;;;;;3.20;1.90;;;6.40;99.90;;;;;;5043317;28;20267;-66
2023/12/14 03:01:45;;;;;;;1.90;1.80;;;6.40;99.90;;;;;;5033573;28;20174;-67
2023/12/14 03:04:10;;;;;;;3.50;1.80;;;6.40;99.90;;;;;;5030296;28;20559;-67
2023/12/14 03:06:36;;;;;;;2.60;2.27;;;6.50;99.90;;;;;;5034827;28;20636;-66
2023/12/14 03:09:01;;;;;;;3.60;2.33;;;6.50;99.90;;;;;;5033757;28;20292;-67
2023/12/14 03:11:27;;;;;;;5.23;2.43;;;6.50;99.90;;;;;;5038956;28;20184;-67
2023/12/14 03:13:52;;;;;;;2.57;1.90;;;6.50;99.90;;;;;;5038917;28;20202;-66
2023/12/14 03:16:19;;;;;;;4.20;2.90;;;6.40;99.90;;;;;;5039612;28;20858;-67
2023/12/14 03:18:44;;;;;;;2.77;2.43;;;6.40;99.90;;;;;;5038348;28;20276;-67
2023/12/14 03:21:10;;;;;;;2.77;2.57;;;6.40;99.90;;;;;;5039466;28;20935;-67
2023/12/14 03:23:36;;;;;;;3.17;2.17;;;6.30;99.90;;;;;;5035004;28;20528;-66
2023/12/14 03:26:02;;;;;;;2.53;2.30;;;6.30;99.90;;;;;;5044834;28;20196;-67
2023/12/14 03:28:28;;;;;;;4.20;2.57;;;6.30;99.90;;;;;;5047404;28;20178;-66
2023/12/14 03:30:54;;;;;;;6.23;3.07;;;6.40;99.90;;;;;;5036568;28;20431;-67
2023/12/14 03:33:19;;;;;;;5.10;3.43;;;6.30;99.90;;;;;;5034576;28;20174;-66
2023/12/14 03:35:46;;;;;;;3.70;3.40;;;6.30;99.90;;;;;;5039830;28;20189;-66
2023/12/14 03:38:14;;;;;;;4.93;3.53;;;6.30;99.90;;;;;;5036412;28;20194;-67
2023/12/14 03:40:40;;;;;;;4.90;3.50;;;6.30;99.90;;;;;;5030805;28;20463;-67
2023/12/14 03:43:06;;;;;;;5.67;4.17;;;6.40;99.90;;;;;;5042671;28;20436;-66
2023/12/14 03:45:31;;;;;;;4.10;3.63;;;6.50;99.90;;;;;;5048858;28;20180;-66
2023/12/14 03:47:57;;;;;;;5.40;4.00;;;6.50;99.90;;;;;;5034239;28;20785;-67
2023/12/14 03:50:22;;;;;;;4.30;3.53;;;6.40;99.90;;;;;;5037519;28;20230;-67
2023/12/14 03:52:48;;;;;;;4.47;4.07;;;6.40;99.90;;;;;;5031088;28;20190;-67
2023/12/14 03:55:15;;;;;;;6.00;4.80;;;6.40;99.90;;;;;;5047466;28;20189;-67
2023/12/14 03:57:41;;;;;;;6.23;4.53;;;6.40;99.90;;;;;;5042188;28;20558;-66
2023/12/14 04:00:14;;;;;;;4.83;3.37;;;6.40;99.90;;;;;;5033729;28;20471;-67
2023/12/14 04:02:40;;;;;;;5.23;4.43;;;6.40;99.90;;;;;;5043310;28;20427;-67
2023/12/14 04:05:09;;;;;;;4.30;3.90;;;6.50;99.90;;;;;;5033279;28;20495;-67
2023/12/14 04:07:41;;;;;;;4.43;3.33;;;6.50;99.90;;;;;;5019500;28;20910;-67
2023/12/14 04:10:11;;;;;;;4.03;3.60;;;6.60;99.90;;;;;;5026942;28;20556;-68
2023/12/14 04:12:38;;;;;;;5.27;4.10;;;6.60;99.90;;;;;;5040602;28;20510;-68
2023/12/14 04:15:07;;;;;;;5.17;4.00;;;6.70;99.90;;;;;;5042339;28;20428;-68
2023/12/14 04:17:33;;;;;;;5.70;3.90;;;6.70;99.90;;;;;;5034539;28;20433;-68
2023/12/14 04:19:59;;;;;;;3.60;3.30;;;6.70;99.90;;;;;;5032352;28;20836;-68
2023/12/14 04:22:25;;;;;;;4.00;3.60;;;6.70;99.90;;;;;;5040376;28;20433;-68
2023/12/14 04:24:51;;;;;;;3.73;3.43;;;6.70;99.90;;;;;;5041173;28;20601;-69
2023/12/14 04:27:17;;;;;;;3.77;3.40;;;6.70;99.90;;;;;;5044983;28;20507;-66
2023/12/14 04:29:42;;;;;;;4.43;4.00;;;6.70;99.90;;;;;;5037538;28;20536;-67
2023/12/14 04:32:08;;;;;;;4.10;3.77;;;6.70;99.90;;;;;;5033592;28;20177;-68
2023/12/14 04:34:33;;;;;;;4.27;3.93;;;6.70;99.90;;;;;;5042462;28;20170;-68
2023/12/14 04:36:59;;;;;;;4.93;4.53;;;6.70;99.90;;;;;;5024361;28;20178;-69
2023/12/14 04:39:25;;;;;;;4.90;4.50;;;6.70;99.90;;;;;;5035569;28;20220;-66
2023/12/14 04:41:52;;;;;;;5.03;4.10;;;6.70;99.90;;;;;;5045699;28;20227;-68
2023/12/14 04:44:18;;;;;;;5.37;4.70;;;6.70;99.90;;;;;;5054140;28;20424;-68
2023/12/14 04:46:44;;;;;;;5.40;4.90;;;6.70;99.90;;;;;;5037167;28;20433;-68
2023/12/14 04:49:09;;;;;;;8.40;4.97;;;6.70;99.90;;;;;;5042267;28;20476;-68
2023/12/14 04:51:35;;;;;;;6.27;4.93;;;6.70;99.90;;;;;;5032873;28;20186;-68
2023/12/14 04:54:00;;;;;;;5.57;4.83;;;6.70;99.90;;;;;;5033579;28;20596;-67
2023/12/14 04:56:26;;;;;;;6.47;4.90;;;6.70;99.90;;;;;;5040013;28;20233;-67
2023/12/14 04:58:51;;;;;;;6.87;6.27;;;6.70;99.90;;;;;;5041905;28;20206;-67
2023/12/14 05:01:17;;;;;;;6.63;6.00;;;6.60;99.90;;;;;;5032692;28;20182;-66
2023/12/14 05:03:42;;;;;;;6.70;5.87;;;6.70;99.90;;;;;;5033368;28;20223;-66
2023/12/14 05:06:08;;;;;;;5.70;5.20;;;6.70;99.90;;;;;;5036356;28;20207;-66
2023/12/14 05:08:33;;;;;;;6.60;6.03;;;6.70;99.90;;;;;;5037831;28;20601;-67
2023/12/14 05:10:59;;;;;;;7.47;6.70;;;6.70;99.90;;;;;;5039298;28;20205;-67
2023/12/14 05:13:25;;;;;;;7.20;6.50;;;6.70;99.90;;;;;;5032087;28;20189;-67
2023/12/14 05:15:51;;;;;;;8.33;6.63;;;6.60;99.90;;;;;;5029335;28;20680;-68
2023/12/14 05:18:17;;;;;;;7.27;6.57;;;6.60;99.90;;;;;;5041230;28;20193;-66
2023/12/14 05:20:43;;;;;;;6.70;6.00;;;6.60;99.90;;;;;;5031787;28;20457;-68
2023/12/14 05:23:08;;;;;;;7.57;6.40;;;6.60;99.90;;;;;;5038228;28;20800;-68
2023/12/14 05:25:34;;;;;;;7.73;6.90;;;6.60;99.90;;;;;;5044199;28;20228;-67
2023/12/14 05:27:59;;;;;;;8.23;7.37;;;6.70;99.90;;;;;;5035211;28;20182;-66
2023/12/14 05:30:25;;;;;;;7.63;6.70;;;6.70;99.90;;;;;;5040811;28;20194;-66
2023/12/14 05:32:50;;;;;;;8.00;7.27;;;6.70;99.90;;;;;;5032387;28;20186;-66
2023/12/14 05:35:16;;;;;;;7.73;6.77;;;6.70;99.90;;;;;;5037628;28;20171;-68
2023/12/14 05:37:41;;;;;;;8.53;7.03;;;6.70;99.90;;;;;;5039466;28;20517;-67
2023/12/14 05:40:09;;;;;;;9.70;7.50;;;6.70;99.90;;;;;;5043721;28;20671;-69
2023/12/14 05:42:34;;;;;;;8.27;6.33;;;6.70;99.90;;;;;;5052969;28;20212;-66
2023/12/14 05:45:00;;;;;;;7.73;6.93;;;6.70;99.90;;;;;;5040434;28;20991;-66
2023/12/14 05:47:26;;;;;;;8.90;7.50;;;6.70;99.90;;;;;;5040558;28;20240;-66
2023/12/14 05:49:52;;;;;;;7.83;7.00;;;6.70;99.90;;;;;;5043770;28;20205;-65
2023/12/14 05:52:18;;;;;;;10.77;7.80;;;6.80;99.90;;;;;;5036419;28;20563;-66
2023/12/14 05:54:43;;;;;;;10.10;8.10;;;6.80;99.90;;;;;;5034777;28;20193;-66
2023/12/14 05:57:09;;;;;;;8.03;7.23;;;6.80;99.90;;;;;;5039851;28;20571;-64
2023/12/14 05:59:34;;;;;;;10.13;8.80;;;6.80;99.90;;;;;;5040708;28;20210;-66
2023/12/14 06:02:00;;;;;;;11.20;9.40;;;6.80;99.90;;;;;;5038439;28;20181;-66
2023/12/14 06:04:27;;;;;;;12.00;8.70;;;6.90;99.90;;;;;;5045094;28;20174;-66
2023/12/14 06:06:53;;;;;;;9.00;8.00;;;6.90;99.90;;;;;;5033488;28;20437;-66
2023/12/14 06:09:21;;;;;;;13.03;7.77;;;7.00;99.90;;;;;;5045464;23;20534;-70
2023/12/14 06:11:48;;;;;;;10.90;9.73;;;7.00;99.90;;;;;;5036033;28;20421;-70
2023/12/14 06:14:13;;;;;;;12.77;9.13;;;6.90;99.90;;;;;;5038763;28;20429;-70
2023/12/14 06:16:39;;;;;;;9.03;8.23;;;6.90;99.90;;;;;;5036047;28;20538;-70
2023/12/14 06:19:04;;;;;;;13.67;9.20;;;7.00;99.90;;;;;;5032232;28;20740;-70
2023/12/14 06:21:30;;;;;;;10.77;8.73;;;7.00;99.90;;;;;;5030656;28;20178;-70
2023/12/14 06:23:57;;;;;;;10.43;8.77;;;7.00;99.90;;;;;;5029289;28;20186;-70
2023/12/14 06:26:22;;;;;;;10.73;9.50;;;7.00;99.90;;;;;;5040313;28;20228;-70
2023/12/14 06:28:48;;;;;;;12.47;10.20;;;7.00;99.90;;;;;;5032016;28;20425;-70
2023/12/14 06:31:14;;;;;;;11.70;9.50;;;6.90;99.90;;;;;;5031356;28;20253;-70
2023/12/14 06:33:40;;;;;;;11.30;9.63;;;6.90;99.90;;;;;;5031243;28;20212;-70
2023/12/14 06:36:09;;;;;;;12.83;11.03;;;6.90;99.90;;;;;;5029595;28;20933;-68
2023/12/14 06:38:37;;;;;;;12.40;9.87;;;6.90;99.90;;;;;;5038255;28;20217;-68
2023/12/14 06:41:03;;;;;;;13.27;10.67;;;6.90;99.90;;;;;;5044300;28;20929;-68
2023/12/14 06:43:28;;;;;;;14.07;10.87;;;6.80;99.90;;;;;;5041987;28;20437;-68
2023/12/14 06:45:54;;;;;;;13.80;10.33;;;6.80;99.90;;;;;;5033418;28;20710;-68
2023/12/14 06:48:20;;;;;;;13.20;10.70;;;6.80;99.90;;;;;;5039353;28;20181;-68
2023/12/14 06:50:46;;;;;;;11.97;8.97;;;6.90;99.90;;;;;;5029597;28;20201;-66
2023/12/14 06:53:11;;;;;;;11.03;8.77;;;7.00;99.90;;;;;;5032461;28;20821;-68
2023/12/14 06:55:37;;;;;;;8.83;7.53;;;7.10;99.90;;;;;;5041128;28;20178;-69
2023/12/14 06:58:02;;;;;;;11.50;8.90;;;7.10;99.90;;;;;;5036711;28;20178;-70
2023/12/14 07:00:29;;;;;;;8.93;8.03;;;7.00;99.90;;;;;;5051821;28;20531;-69
2023/12/14 07:02:55;;;;;;;13.17;10.80;;;7.00;99.90;;;;;;5031705;28;20175;-69
2023/12/14 07:05:20;;;;;;;13.63;9.77;;;7.00;99.90;;;;;;5012129;28;20425;-69
2023/12/14 07:07:46;;;;;;;8.57;7.70;;;7.10;99.90;;;;;;5013157;28;20648;-69
2023/12/14 07:10:11;;;;;;;6.93;6.00;;;7.10;99.90;;;;;;5012265;28;20214;-69
2023/12/14 07:12:37;;;;;;;8.97;6.20;;;7.10;99.90;;;;;;5012262;28;20544;-69
2023/12/14 07:15:03;;;;;;;7.20;6.50;;;7.00;99.90;;;;;;5012082;28;20177;-69
2023/12/14 07:17:28;;;;;;;8.47;7.13;;;7.10;99.90;;;;;;5029457;28;20563;-69
2023/12/14 07:19:54;;;;;;;17.30;9.50;;;7.20;99.90;;;;;;5031774;28;20229;-69
2023/12/14 07:22:19;;;;;;;11.63;10.43;;;7.20;99.90;;;;;;5030130;28;20197;-69
2023/12/14 07:24:45;;;;;;;13.10;11.20;;;7.20;99.90;;;;;;5031680;28;20175;-69
2023/12/14 07:27:10;;;;;;;14.37;11.63;;;7.20;99.90;;;;;;5031465;28;20216;-69
2023/12/14 07:29:36;;;;;;;15.20;11.30;;;7.20;99.90;;;;;;5031615;28;20655;-69
2023/12/14 07:32:01;;;;;;;13.13;10.00;;;7.20;99.90;;;;;;5026382;28;20250;-69
2023/12/14 07:34:28;;;;;;;14.57;11.50;;;7.30;99.90;;;;;;5011784;28;20186;-69
2023/12/14 07:36:54;;;;;;;13.97;10.10;;;7.30;99.90;;;;;;5012533;28;20241;-69
2023/12/14 07:39:19;;;;;;;11.63;9.80;;;7.30;99.90;;;;;;5011878;28;20470;-69
2023/12/14 07:41:45;;;;;;;10.30;9.30;;;7.30;99.90;;;;;;5011835;28;20469;-69
2023/12/14 07:44:10;;;;;;;10.10;8.80;;;7.30;99.90;;;;;;5011854;28;20175;-69
2023/12/14 07:46:39;;;;;;;12.07;9.57;;;7.30;99.90;;;;;;5012686;28;20179;-69
2023/12/14 07:49:05;;;;;;;10.77;9.10;;;7.20;99.90;;;;;;5011609;28;20195;-69
2023/12/14 07:51:30;;;;;;;9.90;7.77;;;7.10;99.90;;;;;;5011743;28;20429;-69
2023/12/14 07:53:56;;;;;;;9.60;8.50;;;7.10;99.90;;;;;;5012842;28;20202;-69
2023/12/14 07:56:25;;;;;;;10.20;8.27;;;7.20;99.90;;;;;;5011604;28;20201;-69
2023/12/14 07:58:50;;;;;;;9.97;8.50;;;7.30;99.90;;;;;;5011556;28;20191;-69
2023/12/14 08:01:16;;;;;;;8.53;7.70;;;7.20;99.90;;;;;;5013446;28;20990;-69
2023/12/14 08:03:41;;;;;;;8.60;7.53;;;7.30;99.90;;;;;;5015209;28;20171;-69
2023/12/14 08:06:07;;;;;;;9.63;6.77;;;7.30;99.90;;;;;;5016308;28;20178;-69
2023/12/14 08:08:32;;;;;;;9.73;7.37;;;7.30;99.90;;;;;;5014896;28;20544;-69
2023/12/14 08:10:58;;;;;;;9.20;7.30;;;7.40;99.90;;;;;;5015026;28;20257;-69
2023/12/14 08:13:24;;;;;;;8.60;7.10;;;7.40;99.90;;;;;;5015060;28;20544;-69
2023/12/14 08:15:49;;;;;;;6.80;6.10;;;7.40;99.90;;;;;;5015000;28;20174;-69
2023/12/14 08:18:15;;;;;;;6.17;5.57;;;7.40;99.90;;;;;;5014499;28;20179;-69
2023/12/14 08:20:40;;;;;;;8.90;7.63;;;7.50;99.90;;;;;;5026255;28;20736;-69
2023/12/14 08:23:06;;;;;;;8.40;6.13;;;7.60;99.90;;;;;;5032979;28;20178;-69
2023/12/14 08:25:32;;;;;;;7.10;5.90;;;7.60;99.90;;;;;;5034567;28;20162;-69
2023/12/14 08:27:57;;;;;;;9.60;5.73;;;7.60;99.90;;;;;;5034254;28;20420;-69
2023/12/14 08:30:23;;;;;;;5.80;4.60;;;7.70;99.90;;;;;;5034462;28;20190;-69
2023/12/14 08:32:49;;;;;;;6.70;5.20;;;7.80;99.90;;;;;;5034300;28;20166;-69
2023/12/14 08:35:15;;;;;;;7.07;6.30;;;8.00;99.90;;;;;;5032920;28;20484;-69
2023/12/14 08:37:40;;;;;;;8.60;6.37;;;8.10;99.90;;;;;;5034057;28;20224;-69
2023/12/14 08:40:07;;;;;;;7.80;5.13;;;8.20;99.90;;;;;;5034204;28;20702;-69
2023/12/14 08:42:33;;;;;;;6.43;5.23;;;8.30;99.90;;;;;;5034301;28;20221;-69
2023/12/14 08:44:58;;;;;;;4.87;4.47;;;8.30;99.90;;;;;;5034425;28;20417;-69
2023/12/14 08:47:24;;;;;;;6.00;5.40;;;8.40;99.90;;;;;;5033736;28;20413;-69
2023/12/14 08:49:50;;;;;;;5.73;4.97;;;8.50;99.90;;;;;;5016367;28;20199;-69
2023/12/14 08:52:15;;;;;;;10.03;5.37;;;8.40;99.90;;;;;;5015398;28;20270;-69
2023/12/14 08:54:43;;;;;;;5.53;5.03;;;8.40;99.90;;;;;;5014271;28;20250;-69
2023/12/14 08:57:09;;;;;;;5.90;5.23;;;8.50;99.90;;;;;;5013944;28;20299;-69
2023/12/14 08:59:34;;;;;;;4.70;4.20;;;8.70;99.90;;;;;;5014043;28;20457;-69
2023/12/14 09:02:00;;;;;;;6.20;5.60;;;8.80;99.90;;;;;;5015198;28;20183;-69
2023/12/14 09:04:25;;;;;;;9.80;8.60;;;8.70;99.90;;;;;;5014035;28;20167;-69
2023/12/14 09:06:51;;;;;;;6.23;5.43;;;8.60;99.90;;;;;;5014863;28;20217;-69
2023/12/14 09:09:18;;;;;;;7.10;6.23;;;8.40;99.90;;;;;;5013783;28;20681;-69
2023/12/14 09:11:44;;;;;;;6.43;5.70;;;8.40;99.90;;;;;;5013737;28;20441;-69
2023/12/14 09:14:09;;;;;;;7.60;6.80;;;8.50;99.90;;;;;;5013842;28;20499;-69
2023/12/14 09:16:35;;;;;;;7.47;5.70;;;8.60;99.90;;;;;;5029426;28;20189;-69
2023/12/14 09:19:00;;;;;;;4.80;4.40;;;8.60;99.90;;;;;;5033622;28;20205;-69
2023/12/14 09:21:26;;;;;;;7.13;6.37;;;8.70;99.90;;;;;;5032184;28;20201;-69
2023/12/14 09:23:53;;;;;;;6.70;5.83;;;8.70;99.90;;;;;;5033603;28;20249;-69
2023/12/14 09:26:19;;;;;;;7.93;7.13;;;8.70;99.90;;;;;;5033333;28;20208;-69
2023/12/14 09:28:44;;;;;;;7.23;6.00;;;8.70;99.90;;;;;;5033161;28;20829;-69
2023/12/14 09:31:10;;;;;;;8.20;7.40;;;8.60;99.90;;;;;;5033137;28;20170;-69
2023/12/14 09:33:36;;;;;;;8.13;7.27;;;8.50;99.90;;;;;;5033372;28;20171;-69
2023/12/14 09:36:02;;;;;;;9.20;7.40;;;8.60;99.90;;;;;;5019645;28;20483;-69
2023/12/14 09:38:28;;;;;;;8.30;6.63;;;8.70;99.90;;;;;;5014240;28;20282;-69
2023/12/14 09:40:53;;;;;;;8.53;7.10;;;8.80;99.90;;;;;;5013348;28;21157;-69
2023/12/14 09:43:20;;;;;;;8.60;7.70;;;8.80;99.90;;;;;;5013305;28;20171;-69
2023/12/14 09:45:47;;;;;;;9.10;7.03;;;8.90;99.90;;;;;;5013223;28;20171;-69
2023/12/14 09:48:14;;;;;;;12.80;8.03;;;9.10;99.90;;;;;;5012979;28;20425;-69
2023/12/14 09:50:41;;;;;;;9.30;8.40;;;9.20;99.90;;;;;;5014265;28;20479;-69
2023/12/14 09:53:07;;;;;;;8.70;7.13;;;9.50;99.90;;;;;;5013250;28;20414;-69
2023/12/14 09:55:33;;;;;;;8.50;7.30;;;9.70;99.90;;;;;;5028636;28;20504;-69
2023/12/14 09:57:58;;;;;;;9.30;7.70;;;9.90;99.90;;;;;;5012865;28;20493;-69
2023/12/14 10:00:34;;;;;;;8.07;7.30;;;10.20;99.90;;;;;;5012837;28;20211;-69
2023/12/14 10:03:21;;;;;;;7.67;6.97;;;10.30;99.90;;;;;;5012953;28;20258;-69
2023/12/14 10:05:48;;;;;;;7.30;6.60;;;10.40;99.90;;;;;;5014111;28;20449;-69
2023/12/14 10:08:15;;;;;;;7.30;6.60;;;10.30;99.90;;;;;;5030278;28;20433;-69
2023/12/14 10:10:40;;;;;;;7.17;6.50;;;10.40;99.90;;;;;;5032395;28;20453;-69
2023/12/14 10:13:06;;;;;;;6.17;5.60;;;10.90;99.90;;;;;;5032596;28;20758;-69
2023/12/14 10:15:43;;;;;;;7.63;6.70;;;11.20;99.90;;;;;;5032490;28;20174;-69
2023/12/14 10:18:09;;;;;;;7.40;6.70;;;10.90;99.90;;;;;;5032285;28;20857;-69
2023/12/14 10:20:36;;;;;;;8.23;7.33;;;10.50;99.90;;;;;;5020439;28;20580;-69
2023/12/14 10:23:06;;;;;;;8.40;7.60;;;10.10;99.90;;;;;;5013202;28;20186;-69
2023/12/14 10:25:32;;;;;;;10.13;7.90;;;9.70;99.90;;;;;;5012675;28;20410;-69
2023/12/14 10:27:59;;;;;;;9.20;8.30;;;9.40;99.90;;;;;;5012334;28;20456;-69
2023/12/14 10:30:25;;;;;;;9.40;8.23;;;9.30;99.90;;;;;;5012599;28;20244;-69
2023/12/14 10:32:51;;;;;;;11.53;9.80;;;9.10;99.90;;;;;;5027264;28;20848;-69
2023/12/14 10:35:17;;;;;;;10.87;8.60;;;9.00;99.90;;;;;;5012501;28;20217;-69
2023/12/14 10:37:43;;;;;;;10.50;9.33;;;8.90;99.90;;;;;;5013244;28;20666;-69
2023/12/14 10:40:13;;;;;;;10.33;9.23;;;9.20;99.90;;;;;;5012367;28;20576;-69
2023/12/14 10:42:43;;;;;;;11.40;9.50;;;9.50;99.90;;;;;;5013569;28;20426;-69
2023/12/14 10:45:12;;;;;;;10.20;7.73;;;10.10;99.90;;;;;;5012328;28;20930;-69
2023/12/14 10:47:42;;;;;;;7.40;6.60;;;10.60;99.90;;;;;;5012107;28;20497;-69
2023/12/14 10:50:11;;;;;;;6.80;6.20;;;11.00;99.90;;;;;;5012145;28;20904;-70
2023/12/14 10:52:39;;;;;;;5.43;4.93;;;11.10;99.90;;;;;;5013314;28;20429;-69
2023/12/14 10:55:30;;;;;;;6.20;5.10;;;10.80;99.90;;;;;;5012262;28;20433;-69
2023/12/14 10:57:57;;;;;;;9.13;5.33;;;10.60;99.90;;;;;;5001275;28;20429;-69
2023/12/14 11:00:22;;;;;;;6.10;5.50;;;10.80;99.90;;;;;;5012120;28;20462;-69
2023/12/14 11:02:48;;;;;;;6.80;5.53;;;11.00;99.90;;;;;;5012207;28;20410;-69
2023/12/14 11:05:16;;;;;;;6.47;5.33;;;10.80;99.90;;;;;;5013357;28;20174;-69
2023/12/14 11:07:47;;;;;;;6.13;5.57;;;10.60;99.90;;;;;;5013045;28;20183;-69
2023/12/14 11:10:14;;;;;;;5.27;4.73;;;10.60;99.90;;;;;;5012070;28;20544;-69
2023/12/14 11:13:03;;;;;;;5.30;4.80;;;10.80;99.90;;;;;;5012225;28;20509;-69
2023/12/14 11:15:30;;;;;;;7.40;5.50;;;11.40;99.90;;;;;;5012082;28;20444;-69
2023/12/14 11:18:08;;;;;;;5.23;4.37;;;11.80;99.90;;;;;;5011796;28;20914;-67
2023/12/14 11:20:47;;;;;;;5.20;4.80;;;13.70;99.90;;;;;;5013588;28;20475;-67
2023/12/14 11:23:25;;;;;;;5.27;4.60;;;17.10;99.90;;;;;;5030379;28;20421;-68
2023/12/14 11:26:03;;;;;;;4.33;4.03;;;19.50;99.90;;;;;;5031850;28;20405;-68
2023/12/14 11:28:30;;;;;;;4.90;4.00;;;22.50;96.20;;;;;;5031490;28;20478;-68
2023/12/14 11:30:56;;;;;;;4.13;3.80;;;23.50;88.50;;;;;;5031647;28;20460;-68
2023/12/14 11:33:21;;;;;;;4.17;3.60;;;22.50;85.80;;;;;;5021240;28;20866;-68
2023/12/14 11:35:47;;;;;;;4.37;4.00;;;22.10;89.80;;;;;;5014635;28;20229;-68
2023/12/14 11:38:13;;;;;;;4.60;3.30;;;21.20;89.30;;;;;;5016419;28;20789;-68
2023/12/14 11:40:45;;;;;;;4.40;3.43;;;21.70;90.10;;;;;;5015607;28;20198;-67
2023/12/14 11:43:11;;;;;;;9.83;4.40;;;19.90;91.80;;;;;;5015633;28;20178;-67
2023/12/14 11:45:40;;;;;;;4.90;4.07;;;17.40;99.90;;;;;;5015607;28;20409;-67
2023/12/14 11:48:10;;;;;;;4.20;3.80;;;14.70;99.90;;;;;;5016374;28;20852;-66
2023/12/14 11:50:37;;;;;;;4.70;3.70;;;13.40;99.90;;;;;;5014044;28;20499;-67
2023/12/14 11:53:03;;;;;;;3.80;2.83;;;12.70;99.90;;;;;;5016681;28;20782;-69
2023/12/14 11:55:32;;;;;;;2.93;2.67;;;12.00;99.90;;;;;;5015438;28;20422;-69
2023/12/14 11:57:58;;;;;;;4.00;3.00;;;11.40;99.90;;;;;;5015127;28;20426;-69
2023/12/14 12:00:25;;;;;;;2.80;2.33;;;10.80;99.90;;;;;;5015138;28;20845;-69
2023/12/14 12:02:51;;;;;;;2.40;2.20;;;10.40;99.90;;;;;;5016462;28;20495;-69
2023/12/14 12:05:19;;;;;;;3.17;2.20;;;10.20;99.90;;;;;;5015364;28;20918;-69
2023/12/14 12:07:45;;;;;;;2.90;2.20;;;10.00;99.90;;;;;;5014840;28;20202;-69
2023/12/14 12:10:11;;;;;;;2.50;1.87;;;9.80;99.90;;;;;;5015417;28;20473;-69
2023/12/14 12:12:37;;;;;;;5.57;2.13;;;9.70;99.90;;;;;;5015027;28;20422;-69
2023/12/14 12:15:03;;;;;;;1.83;1.73;;;9.70;99.90;;;;;;5015044;28;20955;-70
2023/12/14 12:17:29;;;;;;;2.37;2.17;;;9.70;99.90;;;;;;5014653;28;20254;-69
2023/12/14 12:19:54;;;;;;;3.70;1.80;;;9.70;99.90;;;;;;5014744;28;20569;-69
2023/12/14 12:22:20;;;;;;;2.73;2.47;;;9.50;99.90;;;;;;5014897;28;20163;-69
2023/12/14 12:24:46;;;;;;;4.07;2.33;;;9.70;99.90;;;;;;5016143;28;20166;-69
2023/12/14 12:27:11;;;;;;;4.63;2.10;;;9.80;99.90;;;;;;5014548;28;20163;-69
2023/12/14 12:29:37;;;;;;;2.43;2.20;;;9.50;99.90;;;;;;5029217;28;20285;-69
2023/12/14 12:32:03;;;;;;;2.20;1.87;;;9.30;99.90;;;;;;5034541;28;20719;-69
2023/12/14 12:34:28;;;;;;;3.07;2.77;;;9.00;99.90;;;;;;5034565;28;20311;-69
2023/12/14 12:36:54;;;;;;;3.43;2.40;;;8.70;99.90;;;;;;5034289;28;20241;-68
2023/12/14 12:39:20;;;;;;;2.77;2.57;;;8.40;99.90;;;;;;5032689;28;20242;-68
2023/12/14 12:41:45;;;;;;;2.30;2.10;;;8.40;99.90;;;;;;5034275;28;20448;-68
2023/12/14 12:44:11;;;;;;;4.40;3.20;;;8.30;99.90;;;;;;5034333;28;20192;-68
2023/12/14 12:46:37;;;;;;;3.03;2.83;;;8.20;99.90;;;;;;5033481;28;20173;-68
2023/12/14 12:49:04;;;;;;;4.00;3.60;;;8.10;99.90;;;;;;5034158;28;20319;-68